createdAt,value
2022-09-05T10:21:34.447Z,99041.09
2022-09-05T10:24:48.599Z,99043.91
2022-09-05T10:27:57.531Z,99039.81
2022-09-05T10:32:24.562Z,99038.22
2022-09-05T10:35:17.316Z,99034.88
2022-09-05T10:37:20.149Z,99033.97
2022-09-05T10:40:10.938Z,99032.91
2022-09-05T10:43:03.044Z,99029.56
2022-09-05T10:45:54.826Z,99025.59
2022-09-05T10:48:53.072Z,99030.00
2022-09-05T10:51:51.731Z,99028.28
2022-09-05T10:54:52.576Z,99024.91
2022-09-05T10:58:04.432Z,99027.06
2022-09-05T11:02:23.487Z,99024.09
2022-09-05T11:04:13.851Z,99014.13
2022-09-05T11:07:09.636Z,99023.63
2022-09-05T11:10:05.355Z,99012.50
2022-09-05T11:13:16.845Z,99021.78
2022-09-05T11:16:15.985Z,98998.72
2022-09-05T11:19:05.472Z,99015.22
2022-09-05T11:22:04.052Z,99007.06
2022-09-05T11:25:16.993Z,99011.81
2022-09-05T11:28:16.027Z,99014.69
2022-09-05T11:31:06.246Z,99008.28
2022-09-05T11:39:54.591Z,98992.69
2022-09-05T11:39:55.602Z,98999.91
2022-09-05T11:41:54.221Z,99003.53
2022-09-05T11:44:57.367Z,98999.06
2022-09-05T11:48:19.126Z,98993.13
2022-09-05T11:51:41.028Z,98983.38
2022-09-05T11:54:57.552Z,98992.78
2022-09-05T11:58:43.400Z,99000.47
2022-09-05T12:01:43.336Z,98993.94
2022-09-05T12:05:48.921Z,98989.31
2022-09-05T12:08:08.211Z,98985.94
2022-09-05T12:11:05.439Z,98971.50
2022-09-05T12:14:01.886Z,98978.72
2022-09-05T12:17:35.250Z,98971.63
2022-09-05T12:20:32.724Z,98980.66
2022-09-05T12:23:57.948Z,98979.31
2022-09-05T12:27:42.469Z,98979.38
2022-09-05T12:29:59.430Z,98973.41
2022-09-05T12:34:46.678Z,98975.31
2022-09-05T12:40:45.163Z,98970.75
2022-09-05T12:41:32.639Z,98970.66
2022-09-05T12:42:56.191Z,98970.03
2022-09-05T12:45:58.069Z,98964.28
2022-09-05T12:48:53.984Z,98965.84
2022-09-05T12:51:47.821Z,98965.78
2022-09-05T12:54:42.590Z,98968.69
2022-09-05T13:02:53.382Z,98950.94
2022-09-05T13:03:07.540Z,98951.47
2022-09-05T13:07:09.633Z,98950.25
2022-09-05T13:11:24.141Z,98951.69
2022-09-05T13:15:02.798Z,98948.19
2022-09-05T13:16:23.112Z,98943.38
2022-09-05T13:19:28.338Z,98929.50
2022-09-05T13:22:17.585Z,98942.59
2022-09-05T13:25:09.434Z,98936.28
2022-09-05T13:28:02.012Z,98940.72
2022-09-05T13:38:07.998Z,98943.44
2022-09-05T13:38:10.406Z,98946.34
2022-09-05T13:38:12.465Z,98941.22
2022-09-05T13:40:38.731Z,98938.84
2022-09-05T13:43:28.323Z,98936.81
2022-09-05T13:46:20.104Z,98936.84
2022-09-05T13:49:25.101Z,98935.88
2022-09-05T13:52:29.036Z,98944.72
2022-09-05T13:55:37.874Z,98941.66
2022-09-05T13:58:39.740Z,98938.88
2022-09-05T14:01:37.906Z,98938.25
2022-09-05T14:05:14.760Z,98930.59
2022-09-05T14:08:28.461Z,98935.72
2022-09-05T14:11:50.270Z,98932.31
2022-09-05T14:18:00.573Z,98929.88
2022-09-05T14:21:10.956Z,98933.91
2022-09-05T14:24:04.609Z,98931.06
2022-09-05T14:26:55.538Z,98920.38
2022-09-05T14:29:39.073Z,98922.78
2022-09-05T14:37:38.789Z,98915.41
2022-09-05T14:37:58.325Z,98906.88
2022-09-05T14:38:41.271Z,98919.78
2022-09-05T14:41:44.252Z,98915.00
2022-09-05T14:44:42.243Z,98904.63
2022-09-05T14:47:35.303Z,98909.38
2022-09-05T14:50:30.060Z,98909.34
2022-09-05T14:56:23.157Z,98898.13
2022-09-05T15:02:43.484Z,98897.34
2022-09-05T15:02:54.063Z,98896.66
2022-09-05T15:04:34.782Z,98905.31
2022-09-05T15:07:08.745Z,98893.47
2022-09-05T15:12:18.010Z,98893.03
2022-09-05T15:12:38.552Z,98897.38
2022-09-05T15:15:22.601Z,98884.75
2022-09-05T15:17:54.069Z,98893.50
2022-09-05T15:20:33.421Z,98887.25
2022-09-05T15:23:11.293Z,98894.41
2022-09-05T15:25:48.266Z,98885.84
2022-09-05T15:28:21.663Z,98888.22
2022-09-05T15:30:59.945Z,98890.09
2022-09-05T15:33:31.217Z,98889.78
2022-09-05T15:36:00.737Z,98892.94
2022-09-05T15:38:38.729Z,98887.63
2022-09-05T15:41:24.561Z,98892.75
2022-09-05T15:43:58.294Z,98887.22
2022-09-05T15:46:41.180Z,98881.81
2022-09-05T15:49:23.135Z,98882.72
2022-09-05T15:51:53.182Z,98885.97
2022-09-05T15:54:37.777Z,98882.06
2022-09-05T15:57:17.798Z,98871.16
2022-09-05T15:59:49.200Z,98871.50
2022-09-05T16:02:22.621Z,98871.31
2022-09-05T16:10:29.588Z,98869.22
2022-09-05T16:10:50.407Z,98860.13
2022-09-05T16:11:07.707Z,98854.69
2022-09-05T16:13:52.096Z,98854.81
2022-09-05T16:23:14.932Z,98850.09
2022-09-05T16:23:26.987Z,98847.06
2022-09-05T16:23:31.435Z,98846.78
2022-09-05T16:24:59.465Z,98851.94
2022-09-05T16:27:50.725Z,98842.13
2022-09-05T16:30:24.288Z,98859.22
2022-09-05T16:32:58.727Z,98848.16
2022-09-05T16:35:31.002Z,98837.88
2022-09-05T16:38:09.751Z,98845.78
2022-09-05T16:40:41.969Z,98848.19
2022-09-05T16:43:16.754Z,98852.91
2022-09-05T16:45:51.839Z,98853.69
2022-09-05T16:48:35.027Z,98848.91
2022-09-05T16:51:15.223Z,98855.22
2022-09-05T16:53:58.709Z,98843.34
2022-09-05T16:56:33.808Z,98844.13
2022-09-05T16:59:04.301Z,98840.53
2022-09-05T17:01:54.921Z,98835.31
2022-09-05T17:05:04.570Z,98839.94
2022-09-05T17:07:55.401Z,98832.81
2022-09-05T17:10:27.418Z,98816.50
2022-09-05T17:12:57.102Z,98839.84
2022-09-05T17:15:28.721Z,98850.06
2022-09-05T17:18:20.239Z,98843.72
2022-09-05T17:20:55.012Z,98855.13
2022-09-05T17:29:20.603Z,98851.19
2022-09-05T17:29:33.609Z,98857.47
2022-09-05T17:32:48.329Z,98848.69
2022-09-05T17:35:23.999Z,98853.00
2022-09-05T17:38:12.172Z,98849.31
2022-09-05T17:41:17.351Z,98860.25
2022-09-05T17:43:50.665Z,98843.13
2022-09-05T17:46:23.694Z,98861.38
2022-09-05T17:49:18.846Z,98863.63
2022-09-05T17:52:23.748Z,98864.34
2022-09-05T17:54:54.140Z,98871.38
2022-09-05T17:57:39.930Z,98880.44
2022-09-05T18:00:40.408Z,98882.28
2022-09-05T18:03:08.957Z,98880.69
2022-09-05T18:05:59.589Z,98876.59
2022-09-05T18:08:52.632Z,98874.69
2022-09-05T18:11:44.752Z,98882.19
2022-09-05T18:14:50.279Z,98872.56
2022-09-05T18:17:58.878Z,98866.78
2022-09-05T18:20:49.855Z,98878.66
2022-09-05T18:23:54.382Z,98881.38
2022-09-05T18:26:25.645Z,98875.38
2022-09-05T18:29:01.606Z,98876.97
2022-09-05T18:32:01.579Z,98883.97
2022-09-05T18:34:44.913Z,98879.97
2022-09-05T18:38:00.088Z,98884.06
2022-09-05T18:40:39.756Z,98891.19
2022-09-05T18:43:14.630Z,98894.09
2022-09-05T18:45:53.061Z,98893.16
2022-09-05T18:48:29.605Z,98901.75
2022-09-05T18:51:15.488Z,98891.34
2022-09-05T18:53:47.416Z,98893.66
2022-09-05T18:56:32.927Z,98896.22
2022-09-05T18:59:17.825Z,98892.88
2022-09-05T19:01:59.061Z,98893.66
2022-09-05T19:04:41.495Z,98883.50
2022-09-05T19:07:13.369Z,98898.09
2022-09-05T19:10:03.719Z,98891.03
2022-09-05T19:12:53.363Z,98885.81
2022-09-05T19:15:25.020Z,98891.75
2022-09-05T19:18:03.672Z,98884.06
2022-09-05T19:21:12.013Z,98868.44
2022-09-05T19:23:46.533Z,98881.53
2022-09-05T19:26:15.002Z,98887.34
2022-09-05T19:35:53.041Z,98885.38
2022-09-05T19:36:53.602Z,98882.69
2022-09-05T19:37:11.018Z,98877.31
2022-09-05T19:37:36.618Z,98865.53
2022-09-05T19:47:25.533Z,98867.06
2022-09-05T19:47:37.377Z,98858.34
2022-09-05T19:47:55.699Z,98853.00
2022-09-05T19:48:35.783Z,98860.38
2022-09-05T19:51:17.625Z,98850.13
2022-09-05T19:53:53.447Z,98817.00
2022-09-05T19:56:36.775Z,98860.84
2022-09-05T19:59:16.440Z,98852.47
2022-09-05T20:01:46.073Z,98863.91
2022-09-05T20:04:18.613Z,98857.38
2022-09-05T20:06:47.447Z,98848.41
2022-09-05T20:09:18.957Z,98852.59
2022-09-05T20:11:49.823Z,98851.13
2022-09-05T20:14:21.329Z,98851.72
2022-09-05T20:16:50.450Z,98850.19
2022-09-05T20:19:28.291Z,98851.13
2022-09-05T20:21:58.297Z,98851.13
2022-09-05T20:24:28.093Z,98853.00
2022-09-05T20:26:56.360Z,98850.09
2022-09-05T20:29:54.144Z,98848.63
2022-09-05T20:32:37.093Z,98854.25
2022-09-05T20:39:08.648Z,98848.56
2022-09-05T20:43:18.925Z,98851.59
2022-09-05T20:43:21.747Z,98857.50
2022-09-05T20:43:55.876Z,98852.22
2022-09-05T20:47:46.437Z,98841.97
2022-09-05T20:54:07.117Z,98837.34
2022-09-05T20:54:12.669Z,98831.31
2022-09-05T20:55:39.621Z,98820.97
2022-09-05T20:57:51.734Z,98843.56
2022-09-05T21:00:22.462Z,98839.31
2022-09-05T21:02:54.566Z,98853.38
2022-09-05T21:05:29.862Z,98841.97
2022-09-05T21:08:24.706Z,98831.25
2022-09-05T21:10:55.830Z,98848.59
2022-09-05T21:13:28.703Z,98849.31
2022-09-05T21:15:57.543Z,98848.22
2022-09-05T21:18:30.037Z,98851.41
2022-09-05T21:21:08.933Z,98843.19
2022-09-05T21:24:17.269Z,98850.59
2022-09-05T21:26:50.752Z,98846.63
2022-09-05T21:29:32.253Z,98840.06
2022-09-05T21:32:10.414Z,98844.69
2022-09-05T21:34:45.359Z,98843.09
2022-09-05T21:37:16.774Z,98837.88
2022-09-05T21:39:59.398Z,98842.13
2022-09-05T21:46:40.014Z,98843.59
2022-09-05T21:47:50.093Z,98845.06
2022-09-05T21:48:13.205Z,98837.56
2022-09-05T21:50:45.189Z,98836.66
2022-09-05T21:59:14.385Z,98840.56
2022-09-05T21:59:21.116Z,98841.41
2022-09-05T21:59:28.693Z,98846.78
2022-09-05T22:02:00.983Z,98851.53
2022-09-05T22:04:29.265Z,98844.09
2022-09-05T22:07:02.586Z,98836.19
2022-09-05T22:09:31.038Z,98841.88
2022-09-05T22:11:59.901Z,98835.03
2022-09-05T22:14:27.670Z,98842.63
2022-09-05T22:16:58.488Z,98839.28
2022-09-05T22:19:37.264Z,98836.91
2022-09-05T22:22:15.827Z,98839.16
2022-09-05T22:24:47.805Z,98835.78
2022-09-05T22:27:19.810Z,98829.63
2022-09-05T22:29:50.438Z,98827.59
2022-09-05T22:32:34.806Z,98823.00
2022-09-05T22:35:27.895Z,98831.13
2022-09-05T22:38:00.524Z,98833.28
2022-09-05T22:40:29.528Z,98838.75
2022-09-05T22:42:58.583Z,98830.56
2022-09-05T22:45:26.453Z,98828.63
2022-09-05T22:47:54.493Z,98848.09
2022-09-05T22:50:25.194Z,98839.34
2022-09-05T22:52:53.470Z,98835.78
2022-09-05T22:55:21.280Z,98821.44
2022-09-05T22:57:49.596Z,98816.63
2022-09-05T23:00:17.706Z,98822.56
2022-09-05T23:02:50.182Z,98822.09
2022-09-05T23:05:20.579Z,98802.50
2022-09-05T23:07:49.861Z,98809.78
2022-09-05T23:10:18.045Z,98794.97
2022-09-05T23:12:46.192Z,98798.34
2022-09-05T23:15:14.296Z,98796.75
2022-09-05T23:17:42.304Z,98787.63
2022-09-05T23:20:11.518Z,98798.81
2022-09-05T23:22:39.720Z,98783.25
2022-09-05T23:25:09.881Z,98782.38
2022-09-05T23:27:38.461Z,98774.84
2022-09-05T23:30:09.901Z,98778.25
2022-09-05T23:32:38.186Z,98778.97
2022-09-05T23:35:07.295Z,98793.53
2022-09-05T23:37:35.232Z,98774.09
2022-09-05T23:40:03.490Z,98792.31
2022-09-05T23:42:32.927Z,98777.69
2022-09-05T23:45:00.842Z,98772.78
2022-09-05T23:47:29.750Z,98768.78
2022-09-05T23:49:58.298Z,98777.44
2022-09-05T23:52:26.329Z,98765.34
2022-09-05T23:54:54.166Z,98782.91
2022-09-05T23:57:23.250Z,98794.66
2022-09-05T23:59:52.888Z,98789.44
